Time;durP1;ratioP1;P1;durP2;ratioP2;P2;SDS_P1;SDS_P2;PMS_P1;PMS_P2;Temp;Humidity;BMP_temperature;BMP_pressure;BME280_temperature;BME280_humidity;BME280_pressure;Samples;Min_cycle;Max_cycle;Signal;HPM_P1;HPM_P2
2021/03/17 00:01:35;;;;;;;11.00;7.18;;;3.50;43.60;;;;;;4936718;29;20055;-77
2021/03/17 00:04:02;;;;;;;11.45;7.30;;;3.50;44.60;;;;;;4933202;29;20052;-75
2021/03/17 00:06:29;;;;;;;11.85;6.93;;;3.60;43.80;;;;;;4938163;29;20508;-75
2021/03/17 00:08:56;;;;;;;10.70;7.10;;;3.50;42.90;;;;;;4939703;29;20051;-75
2021/03/17 00:11:23;;;;;;;12.25;6.80;;;3.50;43.10;;;;;;4935380;29;20051;-72
2021/03/17 00:13:59;;;;;;;8.90;5.90;;;3.50;43.50;;;;;;4937846;29;20059;-75
2021/03/17 00:16:27;;;;;;;8.80;6.10;;;3.50;41.10;;;;;;4941324;29;20054;-74
2021/03/17 00:18:55;;;;;;;9.77;5.97;;;3.40;42.10;;;;;;4936434;29;20069;-75
2021/03/17 00:21:22;;;;;;;9.45;6.25;;;3.50;42.30;;;;;;4937737;29;20078;-75
2021/03/17 00:23:49;;;;;;;10.00;6.63;;;3.40;42.40;;;;;;4934133;28;20055;-74
2021/03/17 00:26:16;;;;;;;10.05;6.30;;;3.50;43.20;;;;;;4937491;29;20130;-75
2021/03/17 00:28:43;;;;;;;8.38;5.70;;;3.50;42.70;;;;;;4946306;29;20071;-74
2021/03/17 00:31:09;;;;;;;8.85;6.07;;;3.50;42.00;;;;;;4941221;29;20051;-74
2021/03/17 00:33:37;;;;;;;8.95;6.03;;;3.50;42.20;;;;;;4937790;29;20577;-75
2021/03/17 00:36:05;;;;;;;10.18;6.43;;;3.50;41.90;;;;;;4946712;28;20051;-74
2021/03/17 00:38:32;;;;;;;8.18;5.32;;;3.50;42.60;;;;;;4943580;29;20075;-74
2021/03/17 00:40:59;;;;;;;8.65;6.07;;;3.50;42.60;;;;;;4941196;29;20047;-76
2021/03/17 00:43:25;;;;;;;8.88;6.13;;;3.60;43.30;;;;;;4936414;29;20066;-74
2021/03/17 00:45:52;;;;;;;9.82;6.03;;;3.50;42.30;;;;;;4942768;29;20048;-74
2021/03/17 00:48:20;;;;;;;8.50;5.57;;;3.60;42.10;;;;;;4940737;29;20131;-74
2021/03/17 00:50:47;;;;;;;10.40;5.95;;;3.60;42.10;;;;;;4938067;29;20498;-75
2021/03/17 00:53:15;;;;;;;10.02;5.93;;;3.50;42.00;;;;;;4944490;28;20138;-73
2021/03/17 00:55:42;;;;;;;9.13;5.20;;;3.50;42.90;;;;;;4943183;29;20195;-75
2021/03/17 00:58:09;;;;;;;8.88;5.50;;;3.50;42.90;;;;;;4941642;29;20134;-75
2021/03/17 01:00:36;;;;;;;9.05;5.65;;;3.40;43.90;;;;;;4944647;29;20056;-74
2021/03/17 01:03:04;;;;;;;8.57;5.78;;;3.40;44.30;;;;;;4940634;29;20070;-75
2021/03/17 01:05:32;;;;;;;8.85;5.60;;;3.50;45.10;;;;;;4942008;29;20059;-74
2021/03/17 01:08:00;;;;;;;8.20;5.65;;;3.50;44.50;;;;;;4944380;29;20051;-74
2021/03/17 01:10:33;;;;;;;8.75;5.80;;;3.50;44.90;;;;;;4942213;29;20074;-75
2021/03/17 01:13:00;;;;;;;8.70;5.47;;;3.50;45.00;;;;;;4941633;29;20063;-75
2021/03/17 01:15:28;;;;;;;8.70;5.18;;;3.50;43.80;;;;;;4938138;29;20060;-75
2021/03/17 01:17:55;;;;;;;9.00;5.75;;;3.50;44.70;;;;;;4945819;29;20049;-73
2021/03/17 01:20:26;;;;;;;7.43;5.20;;;3.40;44.10;;;;;;4944765;29;20043;-76
2021/03/17 01:22:55;;;;;;;7.57;4.88;;;3.40;43.80;;;;;;4939436;29;20562;-73
2021/03/17 01:25:29;;;;;;;9.15;5.63;;;3.30;44.90;;;;;;4941031;29;20529;-75
2021/03/17 01:27:57;;;;;;;7.88;5.13;;;3.40;45.40;;;;;;4940442;29;20055;-74
2021/03/17 01:30:27;;;;;;;8.13;5.13;;;3.40;45.00;;;;;;4942288;29;20047;-75
2021/03/17 01:32:54;;;;;;;9.48;5.75;;;3.30;45.30;;;;;;4942620;29;20138;-73
2021/03/17 01:35:22;;;;;;;9.13;5.35;;;3.30;45.80;;;;;;4945551;29;20077;-74
2021/03/17 01:37:49;;;;;;;9.30;5.45;;;3.30;46.20;;;;;;4939844;29;20047;-73
2021/03/17 01:40:18;;;;;;;8.52;5.70;;;3.30;47.00;;;;;;4945749;29;20075;-74
2021/03/17 01:42:46;;;;;;;9.13;5.47;;;3.30;46.60;;;;;;4938156;29;20066;-76
2021/03/17 01:45:18;;;;;;;8.65;5.63;;;3.30;46.70;;;;;;4939320;29;20058;-76
2021/03/17 01:47:48;;;;;;;8.23;5.70;;;3.30;47.00;;;;;;4935416;29;20417;-76
2021/03/17 01:50:18;;;;;;;9.93;5.97;;;3.30;46.50;;;;;;4944437;29;20051;-75
2021/03/17 01:52:46;;;;;;;8.65;5.82;;;3.30;46.60;;;;;;4933070;29;20126;-75
2021/03/17 01:55:15;;;;;;;8.15;5.57;;;3.20;46.40;;;;;;4944727;29;20050;-76
2021/03/17 01:57:43;;;;;;;9.60;5.40;;;3.30;47.00;;;;;;4940028;29;20546;-77
2021/03/17 02:00:13;;;;;;;8.95;5.43;;;3.20;46.80;;;;;;4938300;29;20098;-75
2021/03/17 02:02:43;;;;;;;11.07;6.00;;;3.20;47.10;;;;;;4942223;29;20110;-75
2021/03/17 02:05:12;;;;;;;8.23;5.95;;;3.20;47.10;;;;;;4943281;29;20524;-75
2021/03/17 02:07:40;;;;;;;8.70;5.40;;;3.20;47.80;;;;;;4944718;28;20111;-76
2021/03/17 02:10:10;;;;;;;8.85;5.75;;;3.20;47.80;;;;;;4934685;29;20079;-74
2021/03/17 02:12:46;;;;;;;9.88;5.53;;;3.20;47.90;;;;;;4938985;29;20051;-78
2021/03/17 02:15:48;;;;;;;9.25;5.63;;;3.20;47.70;;;;;;4944913;29;20048;-75
2021/03/17 02:18:25;;;;;;;8.82;5.47;;;3.20;47.70;;;;;;4934636;29;20079;-76
2021/03/17 02:21:13;;;;;;;8.73;5.95;;;3.20;47.50;;;;;;4947588;29;20062;-76
2021/03/17 02:23:48;;;;;;;9.73;6.65;;;3.20;47.40;;;;;;4931925;29;20592;-75
2021/03/17 02:26:47;;;;;;;10.07;6.15;;;3.20;47.60;;;;;;4941850;29;20551;-77
2021/03/17 02:29:47;;;;;;;7.65;5.20;;;3.20;47.30;;;;;;4946907;29;20050;-76
2021/03/17 02:32:22;;;;;;;9.85;6.18;;;3.20;47.20;;;;;;4911586;28;20055;-75
2021/03/17 02:34:51;;;;;;;;;;;3.10;46.20;;;;;;4942003;29;20135;-76
2021/03/17 02:37:23;;;;;;;8.68;5.97;;;3.20;46.30;;;;;;4951221;29;19923;-76
2021/03/17 02:39:55;;;;;;;9.23;5.90;;;3.10;46.50;;;;;;4944771;29;20163;-76
2021/03/17 02:42:27;;;;;;;9.00;5.97;;;3.20;46.50;;;;;;4941267;29;20047;-79
2021/03/17 02:45:02;;;;;;;9.48;6.13;;;3.20;46.70;;;;;;4936702;29;20048;-75
2021/03/17 02:47:33;;;;;;;8.55;6.32;;;3.20;46.10;;;;;;4945558;29;20138;-76
2021/03/17 02:50:03;;;;;;;8.82;6.25;;;3.10;45.50;;;;;;4946007;29;20047;-75
2021/03/17 02:52:34;;;;;;;8.80;5.82;;;3.20;46.80;;;;;;4940035;29;20184;-77
2021/03/17 02:55:02;;;;;;;9.45;5.93;;;3.10;45.40;;;;;;4944213;29;20058;-77
2021/03/17 02:57:33;;;;;;;9.40;6.22;;;3.20;45.80;;;;;;4941405;29;20551;-76
2021/03/17 03:00:01;;;;;;;8.32;5.72;;;3.10;46.00;;;;;;4935684;29;20051;-76
2021/03/17 03:02:29;;;;;;;8.73;6.57;;;3.10;46.50;;;;;;4939690;29;20294;-79
2021/03/17 03:04:57;;;;;;;9.90;6.22;;;3.10;46.50;;;;;;4939747;29;20134;-74
2021/03/17 03:07:25;;;;;;;9.50;6.70;;;3.10;46.70;;;;;;4941342;29;20098;-76
2021/03/17 03:09:54;;;;;;;8.93;6.30;;;3.10;46.90;;;;;;4937287;29;20054;-76
2021/03/17 03:12:22;;;;;;;9.98;6.65;;;3.10;46.50;;;;;;4937424;28;20044;-76
2021/03/17 03:14:50;;;;;;;10.25;6.30;;;3.10;47.10;;;;;;4940338;29;20058;-75
2021/03/17 03:17:18;;;;;;;11.00;7.22;;;3.10;47.50;;;;;;4936155;29;20055;-75
2021/03/17 03:19:49;;;;;;;9.00;6.28;;;3.00;47.80;;;;;;4934529;29;20040;-75
2021/03/17 03:22:17;;;;;;;14.60;7.22;;;3.00;47.40;;;;;;4941624;28;20060;-75
2021/03/17 03:24:49;;;;;;;9.45;6.43;;;3.00;47.80;;;;;;4944583;29;20145;-75
2021/03/17 03:27:17;;;;;;;12.05;6.80;;;3.00;47.50;;;;;;4942573;29;20498;-77
2021/03/17 03:29:46;;;;;;;11.50;7.10;;;3.00;48.00;;;;;;4943582;29;20044;-76
2021/03/17 03:32:15;;;;;;;9.13;6.00;;;3.00;47.60;;;;;;4948157;29;20071;-75
2021/03/17 03:34:46;;;;;;;8.35;6.00;;;2.90;47.50;;;;;;4942418;29;20067;-77
2021/03/17 03:37:13;;;;;;;10.80;5.95;;;2.90;47.90;;;;;;4942202;29;20419;-77
2021/03/17 03:39:40;;;;;;;11.93;6.25;;;2.90;47.50;;;;;;4940599;29;20071;-75
2021/03/17 03:42:08;;;;;;;7.68;5.28;;;2.90;47.50;;;;;;4944556;29;21578;-76
2021/03/17 03:44:36;;;;;;;9.93;6.38;;;2.90;48.10;;;;;;4942694;29;20084;-75
2021/03/17 03:47:03;;;;;;;9.70;6.28;;;2.90;48.50;;;;;;4947246;29;20047;-74
2021/03/17 03:49:30;;;;;;;9.75;6.03;;;2.90;48.60;;;;;;4943796;29;20081;-75
2021/03/17 03:52:03;;;;;;;10.68;6.30;;;2.80;48.40;;;;;;4944574;29;20071;-76
2021/03/17 03:54:37;;;;;;;9.85;6.60;;;2.90;48.20;;;;;;4942800;29;20147;-73
2021/03/17 03:57:12;;;;;;;9.50;6.55;;;2.90;47.80;;;;;;4953929;29;20055;-75
2021/03/17 03:59:43;;;;;;;11.40;7.05;;;2.90;48.50;;;;;;4943620;29;20051;-76
2021/03/17 04:02:21;;;;;;;10.25;6.10;;;3.00;48.40;;;;;;4943188;29;20059;-76
2021/03/17 04:04:49;;;;;;;11.13;6.78;;;3.00;47.70;;;;;;4943328;29;20062;-75
2021/03/17 04:07:17;;;;;;;10.88;5.82;;;3.00;47.80;;;;;;4948811;29;20069;-76
2021/03/17 04:09:47;;;;;;;10.00;6.43;;;3.00;47.70;;;;;;4947191;29;20051;-76
2021/03/17 04:12:16;;;;;;;8.27;5.78;;;3.00;47.60;;;;;;4938087;29;20055;-76
2021/03/17 04:14:47;;;;;;;8.75;6.15;;;3.00;47.90;;;;;;4942306;29;20658;-75
2021/03/17 04:17:19;;;;;;;9.52;6.30;;;3.00;48.10;;;;;;4945116;29;20055;-76
2021/03/17 04:19:49;;;;;;;10.13;6.32;;;3.10;48.70;;;;;;4942434;29;20417;-77
2021/03/17 04:22:18;;;;;;;9.48;6.18;;;3.00;47.20;;;;;;4944296;29;20054;-75
2021/03/17 04:24:46;;;;;;;9.43;6.20;;;3.00;47.30;;;;;;4941852;29;20059;-76
2021/03/17 04:27:16;;;;;;;10.63;6.55;;;3.00;46.90;;;;;;4943912;29;20052;-74
2021/03/17 04:29:44;;;;;;;9.77;6.43;;;3.00;48.00;;;;;;4935338;29;20052;-75
2021/03/17 04:32:13;;;;;;;10.20;6.35;;;3.00;47.00;;;;;;4945445;29;20055;-74
2021/03/17 04:34:41;;;;;;;10.63;7.43;;;3.00;47.80;;;;;;4945243;29;20672;-74
2021/03/17 04:37:10;;;;;;;10.30;6.97;;;3.00;47.50;;;;;;4946258;29;20394;-76
2021/03/17 04:39:37;;;;;;;11.25;7.45;;;3.00;47.40;;;;;;4946877;29;20053;-76
2021/03/17 04:42:05;;;;;;;11.82;7.43;;;3.00;47.80;;;;;;4944894;29;20421;-76
2021/03/17 04:44:34;;;;;;;11.65;7.50;;;3.00;48.00;;;;;;4941538;29;20093;-75
2021/03/17 04:47:19;;;;;;;15.25;7.93;;;3.00;48.10;;;;;;4944916;29;20600;-74
2021/03/17 04:49:47;;;;;;;11.63;7.22;;;3.00;48.00;;;;;;4941231;29;20043;-74
2021/03/17 04:52:16;;;;;;;12.30;7.50;;;3.00;48.30;;;;;;4946886;29;20083;-74
2021/03/17 04:54:42;;;;;;;12.38;7.93;;;3.00;48.00;;;;;;4943319;29;20043;-74
2021/03/17 04:57:14;;;;;;;11.40;7.45;;;3.00;48.10;;;;;;4947800;29;20070;-74
2021/03/17 04:59:44;;;;;;;11.95;7.25;;;3.00;48.10;;;;;;4936381;29;20047;-74
2021/03/17 05:02:12;;;;;;;13.57;8.40;;;3.10;48.60;;;;;;4940615;29;20276;-74
2021/03/17 05:04:42;;;;;;;11.45;7.43;;;3.00;47.80;;;;;;4938627;29;20047;-73
2021/03/17 05:07:12;;;;;;;13.50;8.30;;;3.10;48.60;;;;;;4943065;29;20135;-75
2021/03/17 05:09:40;;;;;;;12.90;8.50;;;3.00;47.90;;;;;;4938852;29;20054;-73
2021/03/17 05:12:09;;;;;;;12.50;8.23;;;3.10;48.40;;;;;;4940560;29;20059;-74
2021/03/17 05:14:37;;;;;;;14.57;8.88;;;3.10;47.90;;;;;;4941680;29;20052;-72
2021/03/17 05:17:05;;;;;;;14.02;8.23;;;3.00;47.80;;;;;;4944976;28;20458;-74
2021/03/17 05:19:33;;;;;;;13.07;8.38;;;3.10;48.70;;;;;;4937258;28;20053;-73
2021/03/17 05:22:02;;;;;;;15.35;9.45;;;3.00;48.10;;;;;;4941161;28;20047;-73
2021/03/17 05:24:29;;;;;;;16.02;9.93;;;3.00;48.10;;;;;;4937923;29;20051;-73
2021/03/17 05:26:58;;;;;;;12.15;8.13;;;3.00;48.50;;;;;;4941429;29;20055;-73
2021/03/17 05:29:27;;;;;;;13.18;8.73;;;3.10;48.70;;;;;;4938409;29;20044;-75
2021/03/17 05:31:55;;;;;;;15.15;9.05;;;3.00;48.60;;;;;;4938226;29;20047;-75
2021/03/17 05:34:23;;;;;;;15.50;8.73;;;3.00;48.70;;;;;;4940034;29;20130;-75
2021/03/17 05:36:50;;;;;;;16.13;9.80;;;3.00;48.70;;;;;;4946871;29;20052;-74
2021/03/17 05:39:17;;;;;;;17.45;9.88;;;3.00;48.70;;;;;;4944618;29;20043;-76
2021/03/17 05:41:45;;;;;;;18.23;9.88;;;3.00;48.70;;;;;;4944410;29;20058;-74
2021/03/17 05:44:14;;;;;;;15.55;9.75;;;3.10;48.80;;;;;;4941834;28;20043;-73
2021/03/17 05:46:43;;;;;;;17.38;10.18;;;3.00;48.70;;;;;;4945831;29;20047;-74
2021/03/17 05:49:11;;;;;;;20.40;11.43;;;3.10;48.70;;;;;;4938346;29;20494;-75
2021/03/17 05:51:40;;;;;;;21.95;11.43;;;3.10;49.30;;;;;;4938427;29;20047;-76
2021/03/17 05:54:09;;;;;;;17.83;11.40;;;3.00;48.70;;;;;;4933865;29;20053;-75
2021/03/17 05:56:38;;;;;;;19.77;11.85;;;3.00;49.60;;;;;;4944783;29;20066;-77
2021/03/17 05:59:05;;;;;;;20.45;12.77;;;3.00;49.50;;;;;;4936587;29;20055;-76
2021/03/17 06:01:32;;;;;;;19.08;10.93;;;3.10;50.00;;;;;;4941711;29;20060;-75
2021/03/17 06:04:03;;;;;;;22.48;12.68;;;3.10;50.40;;;;;;4937861;29;20066;-75
2021/03/17 06:06:32;;;;;;;21.92;12.07;;;3.10;50.60;;;;;;4943432;29;20467;-76
2021/03/17 06:09:02;;;;;;;19.70;11.98;;;3.10;50.30;;;;;;4940080;29;20052;-76
2021/03/17 06:11:34;;;;;;;21.60;12.10;;;3.10;50.40;;;;;;4936491;29;20050;-74
2021/03/17 06:14:07;;;;;;;23.00;11.65;;;3.00;50.90;;;;;;4941047;29;20135;-75
2021/03/17 06:16:37;;;;;;;23.05;12.70;;;3.10;50.80;;;;;;4941335;29;20090;-77
2021/03/17 06:19:05;;;;;;;20.23;12.20;;;3.10;51.20;;;;;;4942004;29;20135;-76
2021/03/17 06:21:33;;;;;;;21.88;12.27;;;3.20;51.60;;;;;;4940966;29;20051;-77
2021/03/17 06:24:00;;;;;;;21.20;11.98;;;3.10;51.30;;;;;;4937874;29;20056;-75
2021/03/17 06:26:28;;;;;;;21.98;12.85;;;3.10;51.70;;;;;;4942073;29;20421;-75
2021/03/17 06:28:55;;;;;;;20.42;12.35;;;3.10;51.50;;;;;;4935684;29;20509;-75
2021/03/17 06:31:22;;;;;;;23.05;12.98;;;3.20;52.20;;;;;;4946271;29;20505;-76
2021/03/17 06:33:51;;;;;;;22.98;12.25;;;3.20;51.30;;;;;;4940063;29;20059;-76
2021/03/17 06:36:20;;;;;;;19.95;11.98;;;3.20;51.30;;;;;;4939506;29;20063;-74
2021/03/17 06:38:49;;;;;;;21.48;12.52;;;3.10;51.20;;;;;;4941437;29;20055;-76
2021/03/17 06:41:19;;;;;;;23.23;13.88;;;3.30;51.20;;;;;;4936710;29;20154;-77
2021/03/17 06:43:48;;;;;;;23.33;12.95;;;3.30;51.40;;;;;;4938651;29;20051;-76
2021/03/17 06:46:17;;;;;;;23.13;12.77;;;3.30;49.70;;;;;;4943963;29;20066;-75
2021/03/17 06:49:03;;;;;;;21.35;12.93;;;3.30;49.00;;;;;;4935810;29;20051;-76
2021/03/17 06:51:31;;;;;;;24.30;13.77;;;3.40;49.00;;;;;;4946802;29;20043;-76
2021/03/17 06:54:00;;;;;;;19.75;11.90;;;3.60;50.60;;;;;;4944072;29;20142;-76
2021/03/17 06:56:29;;;;;;;20.60;12.38;;;3.40;48.20;;;;;;4952610;28;20070;-77
2021/03/17 06:58:57;;;;;;;23.23;12.70;;;3.60;49.10;;;;;;4941940;29;20417;-76
2021/03/17 07:01:31;;;;;;;22.35;12.60;;;3.60;47.30;;;;;;4949922;29;20058;-78
2021/03/17 07:04:01;;;;;;;20.08;12.23;;;3.70;47.30;;;;;;4943485;29;20103;-77
2021/03/17 07:06:28;;;;;;;20.20;13.50;;;3.70;45.20;;;;;;4949056;29;20047;-76
2021/03/17 07:08:56;;;;;;;20.83;11.65;;;3.80;45.40;;;;;;4948958;28;20055;-76
2021/03/17 07:11:29;;;;;;;22.63;12.55;;;3.80;45.90;;;;;;4947290;28;20122;-75
2021/03/17 07:14:00;;;;;;;19.80;11.75;;;3.90;43.00;;;;;;4937706;29;20047;-76
2021/03/17 07:16:35;;;;;;;18.17;11.80;;;3.70;41.50;;;;;;4950892;29;20071;-76
2021/03/17 07:19:33;;;;;;;24.67;12.00;;;3.90;42.10;;;;;;4937918;29;20095;-76
2021/03/17 07:22:05;;;;;;;21.40;11.85;;;3.90;40.20;;;;;;4938037;29;20059;-74
2021/03/17 07:24:32;;;;;;;18.50;10.95;;;3.90;40.00;;;;;;4944931;29;20056;-75
2021/03/17 07:27:12;;;;;;;23.27;11.98;;;3.80;38.70;;;;;;4954440;28;20051;-75
2021/03/17 07:29:39;;;;;;;19.77;11.57;;;3.70;39.10;;;;;;4937709;29;20083;-76
2021/03/17 07:32:06;;;;;;;18.52;10.98;;;4.00;41.40;;;;;;4941559;29;20663;-76
2021/03/17 07:34:34;;;;;;;19.45;11.25;;;4.30;39.90;;;;;;4941919;29;20048;-75
2021/03/17 07:37:02;;;;;;;18.17;9.95;;;4.10;36.30;;;;;;4940609;29;20047;-75
2021/03/17 07:39:31;;;;;;;16.73;10.27;;;4.10;35.70;;;;;;4943534;29;20132;-76
2021/03/17 07:42:00;;;;;;;15.80;9.23;;;4.10;37.30;;;;;;4939995;29;20103;-75
2021/03/17 07:44:29;;;;;;;14.18;9.30;;;4.00;35.90;;;;;;4944418;29;20421;-75
2021/03/17 07:46:57;;;;;;;16.45;9.70;;;4.10;37.30;;;;;;4941436;29;20083;-76
2021/03/17 07:49:40;;;;;;;15.60;9.27;;;4.10;35.30;;;;;;4945604;29;20549;-75
2021/03/17 07:52:14;;;;;;;16.83;9.95;;;4.10;32.20;;;;;;4945007;29;20051;-75
2021/03/17 07:54:48;;;;;;;16.58;9.50;;;4.20;30.00;;;;;;4942383;29;20098;-78
2021/03/17 07:57:16;;;;;;;16.50;10.10;;;4.10;32.80;;;;;;4939060;29;20062;-76
2021/03/17 07:59:45;;;;;;;15.50;9.45;;;4.30;30.50;;;;;;4942087;29;20761;-76
2021/03/17 08:02:13;;;;;;;14.90;9.43;;;4.30;27.10;;;;;;4936001;29;20206;-77
2021/03/17 08:04:41;;;;;;;15.35;8.65;;;4.60;28.30;;;;;;4943440;29;20067;-78
2021/03/17 08:07:10;;;;;;;16.27;8.98;;;4.70;26.30;;;;;;4945979;28;20147;-75
2021/03/17 08:09:39;;;;;;;14.45;9.07;;;4.70;22.90;;;;;;4940464;29;20071;-75
2021/03/17 08:12:10;;;;;;;15.18;9.23;;;4.80;22.80;;;;;;4948286;29;20069;-76
2021/03/17 08:14:41;;;;;;;14.85;8.73;;;4.60;22.70;;;;;;4934804;29;20066;-76
2021/03/17 08:17:11;;;;;;;15.93;9.57;;;4.70;23.00;;;;;;4945852;29;20052;-78
2021/03/17 08:20:15;;;;;;;19.52;9.52;;;4.80;22.40;;;;;;4945418;29;20082;-77
2021/03/17 08:22:42;;;;;;;20.50;9.98;;;4.90;21.30;;;;;;4940866;29;21312;-75
2021/03/17 08:25:11;;;;;;;16.05;8.95;;;4.70;21.40;;;;;;4945314;29;20057;-76
2021/03/17 08:27:39;;;;;;;16.17;9.52;;;4.90;19.50;;;;;;4947216;29;20429;-77
2021/03/17 08:30:09;;;;;;;13.85;7.95;;;5.20;17.20;;;;;;4943275;29;20051;-76
2021/03/17 08:32:55;;;;;;;13.10;8.48;;;5.40;16.40;;;;;;4941274;29;20146;-76
2021/03/17 08:35:22;;;;;;;13.90;8.75;;;5.40;17.70;;;;;;4936413;29;20134;-75
2021/03/17 08:37:53;;;;;;;12.98;7.95;;;5.60;14.60;;;;;;4947977;29;20466;-76
2021/03/17 08:40:46;;;;;;;13.90;8.32;;;5.20;16.20;;;;;;4941276;29;20074;-77
2021/03/17 08:43:55;;;;;;;13.70;8.95;;;5.00;16.10;;;;;;4942888;29;20517;-77
2021/03/17 08:46:22;;;;;;;15.80;8.70;;;4.80;16.00;;;;;;4940667;29;20052;-76
2021/03/17 08:49:05;;;;;;;17.13;8.90;;;5.40;16.70;;;;;;4937100;29;20054;-76
2021/03/17 08:52:07;;;;;;;17.55;9.63;;;5.60;14.10;;;;;;4947261;29;20047;-76
2021/03/17 08:55:16;;;;;;;13.65;7.47;;;5.80;13.50;;;;;;4942197;29;20138;-76
2021/03/17 08:58:01;;;;;;;10.88;7.15;;;6.10;11.10;;;;;;4948498;29;20482;-76
2021/03/17 09:00:46;;;;;;;12.02;7.53;;;6.20;6.90;;;;;;4944202;29;20113;-76
2021/03/17 09:03:50;;;;;;;11.63;7.35;;;6.10;7.20;;;;;;4939607;29;20051;-76
2021/03/17 09:06:24;;;;;;;10.95;6.63;;;6.30;7.30;;;;;;4945180;29;20130;-77
2021/03/17 09:09:03;;;;;;;10.30;6.50;;;6.40;3.00;;;;;;4936173;29;20589;-76
2021/03/17 09:11:58;;;;;;;10.85;6.32;;;6.60;3.60;;;;;;4940452;29;20131;-75
2021/03/17 09:14:38;;;;;;;13.90;8.32;;;6.30;1.00;;;;;;4944835;29;20059;-78
2021/03/17 09:17:27;;;;;;;10.88;6.25;;;6.00;1.00;;;;;;4935426;29;20494;-76
2021/03/17 09:20:00;;;;;;;11.98;6.13;;;6.10;1.00;;;;;;4945582;28;20047;-76
2021/03/17 09:22:42;;;;;;;11.80;6.63;;;6.00;1.00;;;;;;4939888;29;20083;-76
2021/03/17 09:25:14;;;;;;;13.63;6.93;;;5.50;1.90;;;;;;4946585;29;20126;-77
2021/03/17 09:27:47;;;;;;;15.05;7.40;;;5.40;5.50;;;;;;4933725;29;20142;-76
2021/03/17 09:30:17;;;;;;;14.00;7.60;;;5.50;6.60;;;;;;4939829;29;20110;-77
2021/03/17 09:32:44;;;;;;;10.65;6.45;;;5.70;3.20;;;;;;4939464;29;20062;-76
2021/03/17 09:35:12;;;;;;;13.88;7.90;;;5.80;2.10;;;;;;4948011;29;20051;-77
2021/03/17 09:37:40;;;;;;;13.43;7.57;;;5.80;2.10;;;;;;4939621;29;20138;-76
2021/03/17 09:40:12;;;;;;;10.73;6.40;;;6.30;3.00;;;;;;4941925;29;20039;-78
2021/03/17 09:42:39;;;;;;;11.02;6.43;;;6.50;1.00;;;;;;4935837;29;20059;-76
2021/03/17 09:45:09;;;;;;;9.15;4.55;;;6.10;1.00;;;;;;4943415;29;20058;-76
2021/03/17 09:47:36;;;;;;;6.40;4.65;;;6.00;1.00;;;;;;4944341;29;20131;-76
2021/03/17 09:50:13;;;;;;;8.82;5.05;;;6.10;1.00;;;;;;4939567;29;20485;-77
2021/03/17 09:52:44;;;;;;;9.23;5.70;;;5.90;1.00;;;;;;4937986;29;20081;-76
2021/03/17 09:55:34;;;;;;;10.07;5.53;;;5.90;1.00;;;;;;4943094;29;20082;-77
2021/03/17 09:58:04;;;;;;;9.48;4.40;;;6.10;1.00;;;;;;4947343;29;20047;-77
2021/03/17 10:00:32;;;;;;;9.45;4.57;;;5.90;1.00;;;;;;4936678;29;20548;-75
2021/03/17 10:03:01;;;;;;;12.65;6.35;;;6.10;1.00;;;;;;4940153;29;20055;-76
2021/03/17 10:05:29;;;;;;;17.27;5.43;;;6.40;1.00;;;;;;4943182;29;20489;-76
2021/03/17 10:07:57;;;;;;;9.80;4.68;;;6.40;1.00;;;;;;4939995;29;20126;-77
2021/03/17 10:10:25;;;;;;;9.40;5.13;;;6.80;1.00;;;;;;4941352;29;20054;-75
2021/03/17 10:12:52;;;;;;;6.03;4.32;;;6.90;1.00;;;;;;4941409;28;20138;-76
2021/03/17 10:15:21;;;;;;;8.25;3.83;;;6.90;1.00;;;;;;4940029;29;20075;-76
2021/03/17 10:17:50;;;;;;;13.20;4.20;;;6.70;1.00;;;;;;4943985;29;20457;-77
2021/03/17 10:20:19;;;;;;;9.30;4.45;;;7.00;1.00;;;;;;4937575;29;20509;-77
2021/03/17 10:22:47;;;;;;;5.80;3.50;;;6.80;1.00;;;;;;4937879;29;20115;-75
2021/03/17 10:25:18;;;;;;;8.45;4.20;;;6.90;1.00;;;;;;4944904;29;20107;-74
2021/03/17 10:27:50;;;;;;;4.63;3.03;;;7.10;1.00;;;;;;4946115;29;20058;-75
2021/03/17 10:30:27;;;;;;;6.88;3.55;;;6.90;1.00;;;;;;4933866;29;20043;-77
2021/03/17 10:32:55;;;;;;;7.63;3.53;;;7.20;1.00;;;;;;4935265;29;20052;-75
2021/03/17 10:35:23;;;;;;;8.20;3.30;;;7.20;1.00;;;;;;4945888;29;20111;-77
2021/03/17 10:37:51;;;;;;;16.60;3.88;;;6.80;1.00;;;;;;4946712;28;20130;-77
2021/03/17 10:40:22;;;;;;;5.38;3.40;;;6.80;1.00;;;;;;4940937;29;20498;-76
2021/03/17 10:42:53;;;;;;;6.72;3.53;;;6.70;1.00;;;;;;4939866;29;20059;-75
2021/03/17 10:45:21;;;;;;;5.93;3.15;;;6.70;1.00;;;;;;4944705;29;20114;-75
2021/03/17 10:47:49;;;;;;;5.05;3.08;;;6.70;1.00;;;;;;4941679;29;20043;-76
2021/03/17 10:50:27;;;;;;;7.97;4.40;;;6.70;1.00;;;;;;4919652;29;20055;-76
2021/03/17 10:52:54;;;;;;;8.82;5.03;;;6.60;1.00;;;;;;4939956;29;20154;-75
2021/03/17 10:55:24;;;;;;;6.03;4.10;;;6.50;1.00;;;;;;4942100;29;20059;-76
2021/03/17 10:57:53;;;;;;;7.00;4.70;;;6.30;1.00;;;;;;4941339;29;20127;-76
2021/03/17 11:00:26;;;;;;;8.85;5.75;;;6.20;1.00;;;;;;4943285;29;20047;-73
2021/03/17 11:02:53;;;;;;;13.65;5.82;;;6.10;1.00;;;;;;4936164;29;20064;-75
2021/03/17 11:05:29;;;;;;;10.95;6.72;;;6.00;1.00;;;;;;4943474;29;20524;-73
2021/03/17 11:07:59;;;;;;;10.90;6.30;;;5.90;1.00;;;;;;4943977;29;20048;-75
2021/03/17 11:10:47;;;;;;;8.60;5.10;;;5.90;1.00;;;;;;4939876;29;20082;-74
2021/03/17 11:13:32;;;;;;;8.65;5.43;;;5.90;1.00;;;;;;4939191;29;20070;-74
2021/03/17 11:16:05;;;;;;;9.00;5.78;;;5.80;1.00;;;;;;4942633;29;20520;-74
2021/03/17 11:18:34;;;;;;;10.32;5.03;;;5.60;1.00;;;;;;4938911;29;20056;-74
2021/03/17 11:21:05;;;;;;;10.70;5.35;;;5.50;1.80;;;;;;4937669;29;20052;-73
2021/03/17 11:23:34;;;;;;;8.98;5.32;;;5.30;1.10;;;;;;4936805;29;20060;-75
2021/03/17 11:26:03;;;;;;;6.80;4.72;;;5.20;2.30;;;;;;4941371;29;20062;-74
2021/03/17 11:28:38;;;;;;;8.38;4.72;;;5.20;2.30;;;;;;4934775;29;20069;-73
2021/03/17 11:31:07;;;;;;;10.40;5.00;;;4.90;3.40;;;;;;4939340;29;20113;-74
2021/03/17 11:33:34;;;;;;;9.65;5.22;;;4.60;3.10;;;;;;4935594;28;20517;-73
2021/03/17 11:36:04;;;;;;;10.00;4.85;;;4.60;6.80;;;;;;4939744;29;20588;-74
2021/03/17 11:38:34;;;;;;;9.27;5.10;;;4.30;9.80;;;;;;4936935;29;20130;-75
2021/03/17 11:41:02;;;;;;;10.60;5.43;;;4.10;12.80;;;;;;4936100;29;20056;-74
2021/03/17 11:43:31;;;;;;;11.52;5.65;;;4.00;17.90;;;;;;4942212;29;20134;-74
2021/03/17 11:46:00;;;;;;;12.35;6.43;;;3.60;20.70;;;;;;4942135;29;20134;-74
2021/03/17 11:48:27;;;;;;;15.63;7.70;;;3.30;24.50;;;;;;4946150;28;20062;-74
2021/03/17 11:50:56;;;;;;;13.82;7.63;;;3.20;28.60;;;;;;4940471;29;20047;-73
2021/03/17 11:53:23;;;;;;;15.25;8.07;;;3.10;32.30;;;;;;4939861;29;20489;-74
2021/03/17 11:55:51;;;;;;;16.25;8.45;;;3.20;36.10;;;;;;4939112;29;20086;-74
2021/03/17 11:58:19;;;;;;;17.25;8.95;;;3.10;37.40;;;;;;4936769;29;20147;-71
2021/03/17 12:00:46;;;;;;;19.80;9.65;;;3.10;39.50;;;;;;4935747;29;20047;-73
2021/03/17 12:03:30;;;;;;;14.35;7.88;;;3.20;41.60;;;;;;4936311;29;20186;-72
2021/03/17 12:05:58;;;;;;;16.13;9.18;;;3.00;39.10;;;;;;4939943;29;20090;-73
2021/03/17 12:08:25;;;;;;;14.70;7.70;;;3.00;42.00;;;;;;4945616;29;20051;-72
2021/03/17 12:10:55;;;;;;;14.25;7.50;;;3.00;41.10;;;;;;4942938;29;20062;-73
2021/03/17 12:13:23;;;;;;;13.65;7.40;;;3.00;42.00;;;;;;4939447;29;20055;-73
2021/03/17 12:15:54;;;;;;;14.75;7.45;;;2.90;41.40;;;;;;4940606;29;20055;-74
2021/03/17 12:18:21;;;;;;;15.35;7.95;;;2.90;42.70;;;;;;4942556;29;20133;-73
2021/03/17 12:20:49;;;;;;;13.27;7.78;;;2.90;42.50;;;;;;4938973;29;20434;-72
2021/03/17 12:23:18;;;;;;;16.42;8.98;;;3.00;43.80;;;;;;4934291;29;20047;-76
2021/03/17 12:25:45;;;;;;;14.30;7.95;;;3.20;43.90;;;;;;4935647;29;20118;-75
2021/03/17 12:28:12;;;;;;;13.88;7.35;;;3.40;44.00;;;;;;4937566;29;20470;-75
2021/03/17 12:30:41;;;;;;;11.23;7.07;;;3.40;41.90;;;;;;4941445;29;20151;-76
2021/03/17 12:33:08;;;;;;;10.38;6.18;;;3.30;38.20;;;;;;4941663;29;20050;-78
2021/03/17 12:35:35;;;;;;;12.30;6.55;;;3.50;39.50;;;;;;4940143;29;20052;-75
2021/03/17 12:38:02;;;;;;;12.45;6.68;;;3.60;33.30;;;;;;4939059;29;20078;-75
2021/03/17 12:40:30;;;;;;;9.50;5.68;;;3.80;35.90;;;;;;4936276;29;20146;-76
2021/03/17 12:42:59;;;;;;;12.57;7.10;;;3.80;37.00;;;;;;4940178;29;20055;-76
2021/03/17 12:45:43;;;;;;;11.87;7.20;;;4.10;39.40;;;;;;4945559;29;20065;-75
2021/03/17 12:48:10;;;;;;;12.15;7.50;;;3.90;37.70;;;;;;4940580;29;20047;-74
2021/03/17 12:50:38;;;;;;;12.57;6.93;;;4.00;37.20;;;;;;4937781;29;20055;-75
2021/03/17 12:53:05;;;;;;;11.07;6.70;;;3.90;34.50;;;;;;4933433;28;20597;-75
2021/03/17 12:55:32;;;;;;;11.93;6.60;;;3.80;37.00;;;;;;4939758;29;20513;-74
2021/03/17 12:57:59;;;;;;;16.10;6.90;;;3.70;37.10;;;;;;4940250;29;20135;-74
2021/03/17 13:00:28;;;;;;;12.20;6.05;;;3.90;37.10;;;;;;4933171;29;20047;-75
2021/03/17 13:02:56;;;;;;;9.63;6.30;;;3.80;33.50;;;;;;4931357;29;20226;-76
2021/03/17 13:05:23;;;;;;;14.80;7.40;;;3.90;33.60;;;;;;4935796;29;20494;-75
2021/03/17 13:07:51;;;;;;;10.80;6.95;;;4.50;39.90;;;;;;4939322;29;20062;-74
2021/03/17 13:10:20;;;;;;;13.23;7.85;;;4.50;35.40;;;;;;4937484;29;20078;-74